Usk, Canada
Current Conditions -  °F | °C
As of 12:00 PM on Friday 19 Dec 2014 (Local Time) from CYXT Reporting Station
Light Snow Light Snow  
Wind Chill: 25°   Ceiling: 300
Heat Index: 30°   Visibility: 1mi
Dew Point: 30°   Wind: 5mph
Humidity: 100%   Direction: 340°NNW
Pressure: 29.5"   Gusts: NA
Location:  54.64°N, 128.41°W
Report Text: CYXT 192000Z 34004KT 290V350 1SM -SN BR BKN003 OVC035 M01/M01 A2950 RMK FG2SF3SC3 VIS VRB 3/4-11/4 SLP000
Loading
Personal Weather Stations






























Interactive Weather Map New forecast layout! Learn more

10-Day Weather Forecast

Advertisements
Track Severe Weather on mobile